Time;durP1;ratioP1;P1;durP2;ratioP2;P2;SDS_P1;SDS_P2;PMS_P1;PMS_P2;Temp;Humidity;BMP_temperature;BMP_pressure;BME280_temperature;BME280_humidity;BME280_pressure;Samples;Min_cycle;Max_cycle;Signal;HPM_P1;HPM_P2
2022/06/19 00:01:48;;;;;;;7.40;5.10;;;;;;;15.78;76.24;98883.63;2209520;79;20956;-78
2022/06/19 00:04:48;;;;;;;9.43;5.50;;;;;;;15.76;76.38;98878.81;2208451;79;20944;-79
2022/06/19 00:07:48;;;;;;;11.35;5.70;;;;;;;15.73;76.36;98878.84;2207763;79;21031;-79
2022/06/19 00:10:49;;;;;;;8.48;5.30;;;;;;;15.72;76.39;98879.72;2208072;79;20950;-79
2022/06/19 00:13:49;;;;;;;6.87;5.37;;;;;;;15.69;76.44;98881.06;2207419;79;21390;-79
2022/06/19 00:16:50;;;;;;;10.13;5.58;;;;;;;15.70;76.61;98877.98;2207600;79;21733;-79
2022/06/19 00:19:50;;;;;;;8.58;5.47;;;;;;;15.68;76.34;98883.27;2207961;79;21000;-78
2022/06/19 00:22:50;;;;;;;7.17;5.60;;;;;;;15.69;76.49;98881.06;2209603;79;20956;-79
2022/06/19 00:25:51;;;;;;;5.87;5.00;;;;;;;15.73;76.38;98876.65;2208897;79;20997;-80
2022/06/19 00:28:51;;;;;;;13.13;5.95;;;;;;;15.74;76.47;98875.32;2221524;79;20991;-79
2022/06/19 00:31:54;;;;;;;9.50;5.58;;;;;;;15.74;76.35;98876.64;2236633;79;20964;-79
2022/06/19 00:34:52;;;;;;;9.45;5.67;;;;;;;15.73;76.32;98869.62;2236496;79;20888;-79
2022/06/19 00:37:53;;;;;;;13.32;5.50;;;;;;;15.71;76.44;98868.77;2236699;79;20932;-79
2022/06/19 00:40:53;;;;;;;6.80;5.17;;;;;;;15.68;76.29;98876.69;2236634;79;20912;-79
2022/06/19 00:43:53;;;;;;;7.22;5.65;;;;;;;15.63;76.23;98872.34;2236672;79;20956;-79
2022/06/19 00:46:54;;;;;;;9.08;5.87;;;;;;;15.61;76.47;98865.78;2236667;79;21355;-79
2022/06/19 00:49:54;;;;;;;8.25;5.17;;;;;;;15.59;76.64;98870.15;2236133;79;20983;-79
2022/06/19 00:52:55;;;;;;;7.55;5.45;;;;;;;15.58;76.77;98867.09;2236486;79;21072;-78
2022/06/19 00:55:55;;;;;;;6.78;5.55;;;;;;;15.56;76.85;98859.62;2236838;79;20916;-79
2022/06/19 00:58:55;;;;;;;6.72;5.50;;;;;;;15.55;76.88;98859.19;2236673;79;20928;-79
2022/06/19 01:01:56;;;;;;;6.33;5.37;;;;;;;15.51;76.73;98861.41;2236741;79;21248;-79
2022/06/19 01:04:56;;;;;;;8.53;5.80;;;;;;;15.47;76.99;98866.27;2236507;79;20920;-79
2022/06/19 01:07:57;;;;;;;7.35;5.50;;;;;;;15.44;77.10;98866.28;2236618;79;20987;-79
2022/06/19 01:10:57;;;;;;;9.25;5.53;;;;;;;15.43;77.21;98871.11;2236843;79;21326;-79
2022/06/19 01:13:57;;;;;;;6.50;5.40;;;;;;;15.39;77.32;98864.13;2236385;79;20936;-79
2022/06/19 01:16:58;;;;;;;7.35;5.40;;;;;;;15.34;77.31;98868.11;2236647;79;20955;-79
2022/06/19 01:19:58;;;;;;;10.40;6.15;;;;;;;15.34;77.45;98859.34;2236657;79;20991;-79
2022/06/19 01:22:59;;;;;;;8.83;5.42;;;;;;;15.30;77.47;98862.00;2236899;79;20920;-79
2022/06/19 01:25:59;;;;;;;12.55;6.28;;;;;;;15.28;77.31;98856.31;2236487;79;21395;-79
2022/06/19 01:28:59;;;;;;;6.33;5.00;;;;;;;15.27;77.46;98854.57;2236574;79;20995;-79
2022/06/19 01:32:00;;;;;;;6.22;4.95;;;;;;;15.25;77.70;98850.64;2236798;79;20924;-79
2022/06/19 01:35:00;;;;;;;8.75;5.10;;;;;;;15.22;77.53;98849.34;2236715;79;20892;-80
2022/06/19 01:38:01;;;;;;;12.18;5.33;;;;;;;15.19;77.55;98845.42;2236702;79;20983;-80
2022/06/19 01:41:01;;;;;;;5.83;5.28;;;;;;;15.17;77.83;98843.69;2236895;79;20974;-80
2022/06/19 01:44:01;;;;;;;6.65;5.10;;;;;;;15.12;78.12;98839.77;2236879;79;21011;-80
2022/06/19 01:47:02;;;;;;;8.98;4.92;;;;;;;15.10;78.38;98848.11;2236885;79;20955;-80
2022/06/19 01:50:02;;;;;;;8.95;5.40;;;;;;;15.08;78.40;98848.56;2236493;79;20963;-80
2022/06/19 01:53:03;;;;;;;7.15;4.80;;;;;;;15.04;78.50;98841.58;2236742;79;20964;-79
2022/06/19 01:56:03;;;;;;;6.62;5.20;;;;;;;15.01;78.72;98840.28;2236720;79;21358;-79
2022/06/19 01:59:03;;;;;;;17.05;6.17;;;;;;;15.01;78.79;98840.28;2236564;79;20956;-79
2022/06/19 02:02:04;;;;;;;9.13;4.92;;;;;;;15.00;78.76;98842.47;2236955;79;20916;-79
2022/06/19 02:05:04;;;;;;;9.65;4.95;;;;;;;14.98;78.88;98837.67;2236803;79;21316;-80
2022/06/19 02:08:05;;;;;;;9.40;5.45;;;;;;;14.95;78.89;98841.19;2236800;79;20924;-80
2022/06/19 02:11:05;;;;;;;12.05;5.53;;;;;;;14.93;79.06;98844.27;2236753;79;20920;-80
2022/06/19 02:14:05;;;;;;;6.40;5.22;;;;;;;14.91;79.23;98843.84;2237000;79;20947;-80
2022/06/19 02:17:06;;;;;;;6.42;4.90;;;;;;;14.87;79.22;98849.56;2236606;79;21303;-80
2022/06/19 02:20:06;;;;;;;6.75;5.40;;;;;;;14.81;79.35;98840.83;2236486;79;21026;-80
2022/06/19 02:23:07;;;;;;;6.37;5.35;;;;;;;14.79;79.48;98845.22;2236852;79;20955;-79
2022/06/19 02:26:09;;;;;;;6.67;5.30;;;;;;;14.79;79.52;98850.04;2236786;79;21382;-79
2022/06/19 02:29:10;;;;;;;5.75;5.15;;;;;;;14.80;79.43;98842.59;2236713;80;21419;-80
2022/06/19 02:32:10;;;;;;;6.53;5.08;;;;;;;14.81;79.48;98843.45;2237069;79;20880;-80
2022/06/19 02:35:11;;;;;;;8.60;5.10;;;;;;;14.81;79.36;98839.52;2236708;79;20900;-80
2022/06/19 02:38:11;;;;;;;9.43;5.30;;;;;;;14.81;79.41;98842.14;2237457;79;21323;-80
2022/06/19 02:41:11;;;;;;;12.40;5.45;;;;;;;14.80;79.52;98840.40;2236846;79;20920;-79
2022/06/19 02:44:12;;;;;;;8.85;5.62;;;;;;;14.81;79.49;98843.45;2236930;79;20931;-79
2022/06/19 02:47:12;;;;;;;8.43;5.75;;;;;;;14.82;79.58;98845.20;2236634;79;21008;-80
2022/06/19 02:50:13;;;;;;;6.22;5.65;;;;;;;14.84;79.62;98840.38;2236633;79;21338;-79
2022/06/19 02:53:13;;;;;;;6.80;5.45;;;;;;;14.87;79.68;98846.05;2236658;79;20908;-80
2022/06/19 02:56:13;;;;;;;7.85;5.87;;;;;;;14.88;79.59;98845.17;2236852;80;20948;-81
2022/06/19 02:59:16;;;;;;;7.60;5.60;;;;;;;14.91;79.67;98847.78;2236838;79;20904;-80
2022/06/19 03:02:17;;;;;;;9.25;5.92;;;;;;;14.95;79.38;98847.77;2236926;79;20916;-79
2022/06/19 03:05:18;;;;;;;6.92;5.67;;;;;;;14.99;79.62;98849.93;2236904;79;20932;-80
2022/06/19 03:08:18;;;;;;;9.50;5.40;;;;;;;15.05;79.50;98848.58;2236875;79;21315;-80
2022/06/19 03:11:20;;;;;;;5.83;5.12;;;;;;;15.09;79.54;98856.88;2236688;79;21284;-79
2022/06/19 03:14:21;;;;;;;5.72;4.87;;;;;;;15.10;79.44;98852.49;2236639;79;20952;-79
2022/06/19 03:17:21;;;;;;;6.20;5.60;;;;;;;15.12;79.47;98852.92;2236704;79;20943;-80
2022/06/19 03:20:21;;;;;;;9.10;6.00;;;;;;;15.14;79.50;98851.16;2236544;79;21014;-79
2022/06/19 03:23:25;;;;;;;9.05;5.55;;;;;;;15.20;79.57;98849.80;2236763;79;20967;-79
2022/06/19 03:26:26;;;;;;;8.50;5.87;;;;;;;15.28;79.53;98844.48;2236875;79;20958;-79
2022/06/19 03:29:26;;;;;;;7.28;5.33;;;;;;;15.38;79.51;98850.55;2226106;79;21020;-79
2022/06/19 03:32:26;;;;;;;11.60;6.15;;;;;;;15.46;79.40;98842.16;2209412;79;20933;-79
2022/06/19 03:35:26;;;;;;;9.10;5.28;;;;;;;15.58;79.23;98840.78;2209544;79;20889;-79
2022/06/19 03:38:27;;;;;;;8.38;5.40;;;;;;;15.70;79.07;98838.08;2209384;79;21304;-79
2022/06/19 03:41:27;;;;;;;8.43;5.17;;;;;;;15.80;78.88;98840.18;2209568;79;20921;-79
2022/06/19 03:44:27;;;;;;;7.37;5.47;;;;;;;15.91;78.71;98833.92;2209636;79;20893;-79
2022/06/19 03:47:30;;;;;;;6.47;5.53;;;;;;;16.01;78.57;98831.20;2209572;79;21000;-79
2022/06/19 03:50:28;;;;;;;8.83;5.05;;;;;;;16.10;78.42;98824.08;2209587;79;21394;-79
2022/06/19 03:53:29;;;;;;;5.78;5.22;;;;;;;16.23;78.21;98825.69;2209279;79;20945;-78
2022/06/19 03:56:29;;;;;;;6.92;5.60;;;;;;;16.35;78.13;98821.17;2209644;79;20924;-79
2022/06/19 03:59:29;;;;;;;7.45;5.25;;;;;;;16.48;78.04;98815.77;2209498;79;20969;-79
2022/06/19 04:02:30;;;;;;;7.22;5.47;;;;;;;16.67;77.90;98814.25;2209416;79;20940;-79
2022/06/19 04:05:31;;;;;;;7.12;5.60;;;;;;;16.83;77.57;98810.52;2209437;81;20956;-79
2022/06/19 04:08:31;;;;;;;6.37;5.30;;;;;;;17.00;77.33;98800.60;2209517;79;20933;-79
2022/06/19 04:11:31;;;;;;;7.22;5.22;;;;;;;17.20;77.13;98802.49;2209553;79;21367;-79
2022/06/19 04:14:31;;;;;;;9.75;4.95;;;;;;;17.37;76.72;98802.26;2209577;79;20948;-79
2022/06/19 04:17:34;;;;;;;7.58;4.83;;;;;;;17.56;76.48;98808.11;2209488;79;20985;-79
2022/06/19 04:20:34;;;;;;;5.30;4.62;;;;;;;17.73;76.06;98810.48;2209291;79;20972;-80
2022/06/19 04:23:35;;;;;;;9.03;4.60;;;;;;;17.92;75.73;98809.71;2209199;79;20932;-79
2022/06/19 04:26:35;;;;;;;5.33;4.47;;;;;;;18.10;75.41;98804.09;2209425;79;20980;-79
2022/06/19 04:29:36;;;;;;;7.10;4.80;;;;;;;18.29;74.91;98800.67;2219649;79;21311;-80
2022/06/19 04:32:36;;;;;;;5.28;4.65;;;;;;;18.49;75.11;98802.45;2236606;79;20995;-80
2022/06/19 04:35:36;;;;;;;7.22;4.87;;;;;;;18.71;74.85;98798.94;2236509;80;20948;-79
2022/06/19 04:38:37;;;;;;;5.72;4.15;;;;;;;18.93;74.06;98796.24;2236728;79;20920;-79
2022/06/19 04:41:37;;;;;;;7.22;4.50;;;;;;;19.18;73.89;98789.97;2236612;79;21303;-79
2022/06/19 04:44:38;;;;;;;9.78;4.53;;;;;;;19.40;73.52;98788.99;2236340;79;20920;-79
2022/06/19 04:47:39;;;;;;;6.90;5.15;;;;;;;19.62;73.57;98782.73;2236548;79;20975;-78
2022/06/19 04:50:38;;;;;;;5.97;4.62;;;;;;;19.93;72.81;98780.16;2236650;79;21395;-78
2022/06/19 04:53:40;;;;;;;13.00;6.92;;;;;;;20.21;72.70;98770.57;2235563;79;20974;-79
2022/06/19 04:56:40;;;;;;;5.15;4.65;;;;;;;20.47;71.82;98768.53;2235038;80;20951;-79
2022/06/19 04:59:40;;;;;;;4.72;4.20;;;;;;;20.67;71.16;98766.16;2235662;79;20924;-79
2022/06/19 05:02:41;;;;;;;7.37;4.00;;;;;;;20.99;70.54;98765.20;2235877;80;20978;-79
2022/06/19 05:05:41;;;;;;;4.33;3.85;;;;;;;21.27;69.25;98761.23;2235614;79;20923;-79
2022/06/19 05:08:42;;;;;;;5.75;3.47;;;;;;;21.55;67.54;98761.19;2236555;79;21401;-80
2022/06/19 05:11:42;;;;;;;8.98;2.95;;;;;;;21.94;65.08;98763.42;2237095;79;20919;-81
2022/06/19 05:14:42;;;;;;;4.33;2.98;;;;;;;22.37;60.89;98757.91;2236997;79;20967;-80
2022/06/19 05:17:43;;;;;;;4.20;3.33;;;;;;;22.72;60.98;98756.14;2237131;79;20952;-81
2022/06/19 05:20:43;;;;;;;5.42;2.98;;;;;;;23.04;59.21;98755.38;2237166;79;21401;-80
2022/06/19 05:23:44;;;;;;;5.40;3.15;;;;;;;23.37;58.54;98756.66;2236596;80;20877;-80
2022/06/19 05:26:44;;;;;;;4.55;2.87;;;;;;;23.70;57.94;98769.56;2236213;79;20959;-80
2022/06/19 05:29:44;;;;;;;5.37;2.52;;;;;;;23.97;56.35;98768.38;2235457;79;21078;-81
2022/06/19 05:32:45;;;;;;;3.90;2.83;;;;;;;24.22;54.73;98771.30;2236378;80;20983;-80
2022/06/19 05:35:45;;;;;;;3.12;2.67;;;;;;;24.43;54.98;98771.27;2236994;80;20908;-80
2022/06/19 05:38:46;;;;;;;4.85;3.10;;;;;;;24.65;54.29;98771.14;2236844;79;20928;-80
2022/06/19 05:41:46;;;;;;;5.25;3.00;;;;;;;24.90;53.81;98761.52;2236787;80;20981;-81
2022/06/19 05:44:46;;;;;;;4.85;2.83;;;;;;;25.13;52.76;98756.44;2237236;79;21024;-80
2022/06/19 05:47:47;;;;;;;5.28;2.83;;;;;;;25.37;51.80;98759.75;2237220;79;20971;-80
2022/06/19 05:50:47;;;;;;;4.17;2.58;;;;;;;25.57;51.22;98753.41;2236966;80;21406;-80
2022/06/19 05:53:48;;;;;;;4.65;2.95;;;;;;;25.72;50.32;98749.98;2237189;79;20931;-80
2022/06/19 05:56:48;;;;;;;5.75;2.58;;;;;;;25.87;50.46;98752.34;2237112;79;20916;-80
2022/06/19 05:59:49;;;;;;;4.67;3.50;;;;;;;26.08;49.90;98758.41;2236919;79;21088;-80
2022/06/19 06:02:49;;;;;;;8.73;2.98;;;;;;;26.24;49.38;98760.20;2237304;79;21267;-80
2022/06/19 06:05:49;;;;;;;11.03;3.12;;;;;;;26.40;48.30;98758.94;2237112;79;20924;-80
2022/06/19 06:08:50;;;;;;;7.60;3.10;;;;;;;26.58;48.19;98756.61;2237188;79;20960;-80
2022/06/19 06:11:53;;;;;;;12.07;7.78;;;;;;;26.75;48.20;98751.66;2236804;79;21331;-81
2022/06/19 06:14:53;;;;;;;5.97;3.10;;;;;;;26.94;47.42;98753.73;2237270;80;20912;-80
2022/06/19 06:17:53;;;;;;;6.47;3.10;;;;;;;27.08;47.06;98752.98;2237223;79;20939;-81
2022/06/19 06:20:54;;;;;;;6.78;3.00;;;;;;;27.21;46.20;98757.17;2236946;79;21323;-80
2022/06/19 06:23:54;;;;;;;5.58;3.10;;;;;;;27.32;45.33;98753.41;2237109;79;20888;-80
2022/06/19 06:26:54;;;;;;;5.60;2.92;;;;;;;27.39;45.52;98755.25;2237081;79;20978;-80
2022/06/19 06:29:55;;;;;;;3.35;2.85;;;;;;;27.53;45.28;98754.84;2236901;79;20976;-80
2022/06/19 06:32:55;;;;;;;6.87;2.85;;;;;;;27.73;44.67;98756.85;2236917;79;20896;-80
2022/06/19 06:35:56;;;;;;;7.67;3.20;;;;;;;27.76;44.51;98758.91;2236859;79;20960;-80
2022/06/19 06:38:56;;;;;;;5.47;3.30;;;;;;;27.83;43.84;98747.33;2236930;79;20964;-80
2022/06/19 06:41:56;;;;;;;5.60;3.42;;;;;;;28.04;43.43;98742.49;2236590;79;21291;-80
2022/06/19 06:44:57;;;;;;;7.80;3.55;;;;;;;28.25;43.38;98730.47;2236724;79;20924;-79
2022/06/19 06:47:57;;;;;;;6.85;3.27;;;;;;;28.46;42.76;98728.27;2236949;79;20979;-80
2022/06/19 06:50:58;;;;;;;6.47;3.15;;;;;;;28.52;41.42;98735.94;2235843;79;20975;-80
2022/06/19 06:53:58;;;;;;;9.08;3.72;;;;;;;28.49;41.33;98741.50;2235416;79;21316;-80
2022/06/19 06:56:58;;;;;;;8.95;3.60;;;;;;;28.51;41.07;98743.61;2236272;79;20917;-80
2022/06/19 06:59:59;;;;;;;5.20;3.10;;;;;;;28.56;40.71;98732.10;2236830;79;20916;-80
2022/06/19 07:02:59;;;;;;;5.97;3.45;;;;;;;28.67;40.69;98722.05;2236838;79;20916;-81
2022/06/19 07:06:00;;;;;;;8.25;3.75;;;;;;;28.84;40.90;98723.20;2236823;79;20884;-81
2022/06/19 07:09:00;;;;;;;6.15;3.25;;;;;;;29.06;40.71;98728.91;2236843;79;20979;-81
2022/06/19 07:12:02;;;;;;;4.85;3.37;;;;;;;29.27;40.04;98740.08;2237001;79;20951;-79
2022/06/19 07:15:01;;;;;;;5.62;2.95;;;;;;;29.34;39.51;98736.50;2236931;79;20943;-80
2022/06/19 07:18:01;;;;;;;7.58;3.40;;;;;;;29.21;38.41;98735.59;2236748;79;21275;-80
2022/06/19 07:21:02;;;;;;;4.85;3.05;;;;;;;29.13;38.82;98724.86;2236476;79;20994;-79
2022/06/19 07:24:02;;;;;;;4.72;3.10;;;;;;;29.27;38.63;98721.27;2236746;79;20971;-79
2022/06/19 07:27:02;;;;;;;4.33;2.80;;;;;;;29.30;38.38;98729.61;2236618;79;20960;-80
2022/06/19 07:30:03;;;;;;;6.15;3.10;;;;;;;29.32;38.07;98728.54;2236435;79;21346;-80
2022/06/19 07:33:03;;;;;;;5.80;2.95;;;;;;;29.29;38.19;98729.22;2236720;79;20928;-80
2022/06/19 07:36:04;;;;;;;4.03;3.20;;;;;;;29.43;38.41;98721.14;2236878;79;20928;-79
2022/06/19 07:39:04;;;;;;;5.00;3.10;;;;;;;29.59;37.74;98719.17;2236937;79;20912;-80
2022/06/19 07:42:08;;;;;;;4.75;3.02;;;;;;;29.74;38.20;98713.23;2236713;80;21386;-79
2022/06/19 07:45:05;;;;;;;5.05;3.12;;;;;;;29.84;37.39;98706.73;2235584;79;21332;-78
2022/06/19 07:51:24;;;;;;;5.30;3.02;;;;;;;29.93;36.62;98710.13;2235610;80;20979;-78
2022/06/19 07:54:25;;;;;;;4.45;2.40;;;;;;;30.02;37.12;98702.80;2236428;79;21322;-78
2022/06/19 07:57:26;;;;;;;6.80;2.92;;;;;;;30.18;36.89;98702.09;2235264;79;21010;-78
2022/06/19 08:00:26;;;;;;;5.15;3.42;;;;;;;30.17;36.34;98701.72;2236451;79;21040;-79
2022/06/19 08:03:26;;;;;;;8.03;2.80;;;;;;;30.32;37.40;98695.73;2235226;79;21002;-78
2022/06/19 08:06:26;;;;;;;6.25;4.25;;;;;;;30.55;36.33;98695.47;2234814;79;20994;-79
2022/06/19 08:09:27;;;;;;;10.32;2.72;;;;;;;30.69;36.13;98699.41;2234830;79;21008;-79
2022/06/19 08:12:27;;;;;;;6.37;3.00;;;;;;;30.78;34.93;98700.08;2234982;79;20947;-78
2022/06/19 08:15:28;;;;;;;6.72;2.60;;;;;;;30.74;35.21;98697.23;2235025;79;21022;-78
2022/06/19 08:18:28;;;;;;;5.20;3.08;;;;;;;30.68;35.39;98704.42;2236359;79;20939;-79
2022/06/19 08:21:28;;;;;;;7.22;3.27;;;;;;;30.73;35.53;98700.91;2236519;79;21019;-79
2022/06/19 08:24:29;;;;;;;9.43;2.60;;;;;;;30.84;35.96;98707.72;2236882;79;20912;-79
2022/06/19 08:27:29;;;;;;;11.00;3.15;;;;;;;30.99;35.90;98706.59;2236986;79;21018;-80
2022/06/19 08:30:30;;;;;;;6.97;2.77;;;;;;;31.18;34.99;98707.95;2227177;78;20968;-78
2022/06/19 08:33:30;;;;;;;33.48;4.12;;;;;;;31.26;33.75;98705.58;2209773;79;20967;-77
2022/06/19 08:36:30;;;;;;;7.08;2.72;;;;;;;31.15;33.42;98705.00;2209630;79;21298;-78
2022/06/19 08:39:31;;;;;;;7.47;3.52;;;;;;;31.14;33.24;98703.73;2209890;81;20889;-78
2022/06/19 08:42:31;;;;;;;4.78;2.83;;;;;;;31.19;33.98;98702.94;2209967;79;20925;-78
2022/06/19 08:45:32;;;;;;;4.75;3.10;;;;;;;31.22;34.42;98697.34;2209951;81;20940;-79
2022/06/19 08:48:33;;;;;;;5.03;2.65;;;;;;;31.43;34.37;98688.98;2209331;81;21051;-78
2022/06/19 08:51:33;;;;;;;2.80;2.55;;;;;;;31.48;34.38;98687.28;2209694;79;21328;-78
2022/06/19 08:54:34;;;;;;;4.30;3.00;;;;;;;31.57;33.82;98691.49;2209435;79;20912;-78
2022/06/19 08:57:34;;;;;;;5.60;2.95;;;;;;;31.52;34.51;98681.55;2209992;79;20953;-78
2022/06/19 09:00:35;;;;;;;5.42;3.10;;;;;;;31.70;34.67;98683.84;2210299;79;20917;-78
2022/06/19 09:05:36;;;;;;;5.28;2.65;;;;;;;31.85;34.61;98686.70;2209910;79;21296;-78
2022/06/19 09:06:35;;;;;;;4.95;2.80;;;;;;;32.02;33.73;98680.84;2209352;79;20916;-78
2022/06/19 09:09:36;;;;;;;5.37;2.90;;;;;;;32.12;33.90;98685.91;2209976;79;20965;-77
2022/06/19 09:12:36;;;;;;;3.87;2.37;;;;;;;32.26;33.86;98682.16;2209895;79;20901;-78
2022/06/19 09:15:37;;;;;;;4.35;2.90;;;;;;;32.37;34.20;98679.45;2210012;79;20921;-78
2022/06/19 09:18:38;;;;;;;6.30;2.95;;;;;;;32.56;33.86;98680.19;2209895;79;20963;-78
2022/06/19 09:21:37;;;;;;;5.45;2.35;;;;;;;32.67;34.10;98680.18;2209893;79;21003;-77
2022/06/19 09:24:38;;;;;;;5.05;3.20;;;;;;;32.93;32.19;98678.94;2209794;79;20928;-78
2022/06/19 09:27:38;;;;;;;4.25;2.37;;;;;;;33.07;31.66;98684.59;2209402;79;21288;-78
2022/06/19 09:30:39;;;;;;;10.10;2.15;;;;;;;33.10;32.11;98675.36;2209933;79;20984;-78
2022/06/19 09:33:39;;;;;;;4.20;2.20;;;;;;;33.21;31.18;98669.42;2210027;79;20949;-78
2022/06/19 09:36:40;;;;;;;7.70;2.55;;;;;;;33.32;31.98;98664.50;2209811;79;20933;-78
2022/06/19 09:39:46;;;;;;;3.52;1.90;;;;;;;33.48;32.12;98660.86;2209916;79;20976;-78
2022/06/19 09:42:40;;;;;;;9.20;2.20;;;;;;;33.45;30.41;98657.06;2208840;79;20941;-78
2022/06/19 09:45:41;;;;;;;6.45;2.22;;;;;;;33.42;29.80;98654.61;2209495;79;20988;-78
2022/06/19 09:48:41;;;;;;;3.92;2.02;;;;;;;33.37;30.06;98651.94;2208727;79;20991;-78
2022/06/19 09:51:41;;;;;;;5.00;2.17;;;;;;;33.40;28.45;98637.65;2209645;79;21431;-78
2022/06/19 09:54:42;;;;;;;10.68;2.90;;;;;;;33.44;28.72;98640.46;2209201;79;20964;-77
2022/06/19 09:57:42;;;;;;;4.47;2.33;;;;;;;33.39;28.99;98633.72;2210019;79;20995;-78
2022/06/19 10:00:43;;;;;;;5.17;2.12;;;;;;;33.43;29.76;98636.03;2209759;79;20975;-78
2022/06/19 10:03:43;;;;;;;2.70;2.00;;;;;;;33.47;30.16;98634.78;2209902;79;20968;-77
2022/06/19 10:06:44;;;;;;;11.95;2.35;;;;;;;33.40;29.12;98636.80;2209602;79;21296;-78
2022/06/19 10:09:44;;;;;;;3.95;1.90;;;;;;;33.13;29.26;98636.75;2209737;79;20968;-78
2022/06/19 10:12:44;;;;;;;11.08;2.75;;;;;;;33.08;29.74;98643.53;2209706;81;20894;-78
2022/06/19 10:15:45;;;;;;;6.00;1.90;;;;;;;33.10;29.99;98637.01;2209480;79;20933;-78
2022/06/19 10:18:45;;;;;;;4.75;2.15;;;;;;;33.10;28.88;98631.60;2209622;79;20949;-78
2022/06/19 10:25:04;;;;;;;11.00;3.35;;;;;;;32.99;30.80;98624.02;2209970;81;20933;-78
2022/06/19 10:28:05;;;;;;;4.42;2.00;;;;;;;32.99;30.80;98624.02;2210006;79;20956;-79
2022/06/19 10:31:05;;;;;;;3.17;2.40;;;;;;;33.21;30.41;98622.09;2220975;79;20999;-79
2022/06/19 10:34:06;;;;;;;6.30;2.00;;;;;;;33.40;29.06;98621.91;2236845;80;21268;-78
2022/06/19 10:37:07;;;;;;;3.95;2.00;;;;;;;33.42;29.15;98622.15;2236798;80;20950;-79
2022/06/19 10:40:07;;;;;;;4.33;2.12;;;;;;;33.41;29.66;98628.55;2236950;79;21003;-78
2022/06/19 10:43:08;;;;;;;3.58;2.27;;;;;;;33.44;29.83;98616.11;2236774;79;21279;-78
2022/06/19 10:46:08;;;;;;;4.65;1.98;;;;;;;33.54;28.82;98618.88;2236918;79;20951;-79
2022/06/19 10:49:08;;;;;;;5.20;2.37;;;;;;;33.59;28.79;98611.72;2236907;79;21010;-79
2022/06/19 10:52:09;;;;;;;5.95;2.20;;;;;;;33.66;29.54;98604.79;2236610;79;20983;-79
2022/06/19 10:55:09;;;;;;;5.53;2.40;;;;;;;33.73;28.62;98599.20;2237078;79;20935;-79
2022/06/19 10:58:10;;;;;;;4.65;2.20;;;;;;;33.81;28.84;98593.98;2237050;79;20912;-79
2022/06/19 11:04:06;;;;;;;3.55;2.20;;;;;;;33.97;28.62;98586.29;2237066;79;21290;-80
2022/06/19 11:04:11;;;;;;;5.72;2.27;;;;;;;34.16;29.00;98583.67;2237430;79;20931;-79
2022/06/19 11:07:11;;;;;;;11.05;2.72;;;;;;;34.25;27.99;98579.28;2236940;79;20944;-80
2022/06/19 11:10:12;;;;;;;4.55;2.45;;;;;;;34.30;28.18;98565.32;2237459;79;20943;-80
2022/06/19 11:13:12;;;;;;;8.25;2.50;;;;;;;34.35;28.77;98552.25;2237402;79;21563;-79
2022/06/19 11:16:13;;;;;;;3.98;1.92;;;;;;;34.46;27.71;98548.92;2237089;79;20934;-80
2022/06/19 11:19:13;;;;;;;7.58;2.42;;;;;;;34.49;27.76;98554.56;2236915;79;20943;-80
2022/06/19 11:22:13;;;;;;;5.00;2.33;;;;;;;34.40;27.86;98557.61;2236942;79;20987;-80
2022/06/19 11:25:14;;;;;;;6.70;2.45;;;;;;;34.53;27.62;98549.72;2236975;79;20900;-80
2022/06/19 11:28:14;;;;;;;10.40;2.98;;;;;;;34.44;27.68;98549.56;2236881;79;20986;-80
2022/06/19 11:31:17;;;;;;;6.20;2.27;;;;;;;34.44;27.71;98544.64;2214464;80;21037;-80
2022/06/19 11:37:39;;;;;;;7.22;2.80;;;;;;;34.46;27.70;98538.59;2226681;80;20997;-80
2022/06/19 11:40:39;;;;;;;2.55;2.35;;;;;;;34.46;27.45;98547.57;2223444;80;20994;-80
2022/06/19 11:43:40;;;;;;;8.20;2.70;;;;;;;34.53;28.86;98538.38;2223742;79;20912;-79
2022/06/19 11:46:40;;;;;;;7.30;2.52;;;;;;;34.58;27.73;98532.05;2223774;80;20945;-80
2022/06/19 11:49:41;;;;;;;7.92;2.20;;;;;;;34.66;28.09;98529.48;2223472;79;20955;-79
2022/06/19 11:52:41;;;;;;;9.33;2.27;;;;;;;34.70;26.99;98529.59;2223154;79;21414;-79
2022/06/19 11:55:41;;;;;;;9.10;2.20;;;;;;;34.74;26.52;98530.17;2223302;79;20951;-79
2022/06/19 11:58:42;;;;;;;4.05;2.20;;;;;;;34.56;26.56;98525.05;2223490;80;20971;-80
2022/06/19 12:01:42;;;;;;;3.80;2.00;;;;;;;34.54;27.12;98518.91;2222440;79;20960;-79
2022/06/19 12:04:44;;;;;;;5.28;2.27;;;;;;;34.66;26.99;98508.30;2223189;79;20916;-79
2022/06/19 12:07:43;;;;;;;5.85;2.20;;;;;;;34.78;27.22;98515.33;2223673;79;20975;-79
2022/06/19 12:10:43;;;;;;;10.48;2.70;;;;;;;34.78;27.30;98514.83;2223673;79;20979;-79
2022/06/19 12:13:44;;;;;;;6.53;2.70;;;;;;;34.54;27.07;98513.00;2223963;79;20949;-79
2022/06/19 12:16:44;;;;;;;6.65;2.20;;;;;;;34.55;27.03;98501.16;2224316;80;20917;-79
2022/06/19 12:19:44;;;;;;;5.95;2.30;;;;;;;34.71;27.41;98506.91;2224682;79;20896;-79
2022/06/19 12:22:45;;;;;;;9.48;2.35;;;;;;;34.86;27.55;98492.96;2224617;79;20991;-80
2022/06/19 12:25:45;;;;;;;5.30;2.35;;;;;;;34.93;27.49;98498.16;2224330;79;20944;-80
2022/06/19 12:28:46;;;;;;;7.60;2.40;;;;;;;34.97;27.43;98492.31;2224540;79;20987;-79
2022/06/19 12:31:46;;;;;;;7.20;2.98;;;;;;;34.98;26.74;98494.52;2217641;79;21000;-79
2022/06/19 12:34:46;;;;;;;14.93;3.10;;;;;;;34.97;26.49;98495.52;2210080;79;21346;-78
2022/06/19 12:37:48;;;;;;;10.68;2.50;;;;;;;34.94;25.23;98491.74;2210335;79;20921;-79
2022/06/19 12:40:47;;;;;;;21.77;3.60;;;;;;;34.95;26.12;98488.03;2210325;79;20917;-79
2022/06/19 12:43:48;;;;;;;17.40;3.00;;;;;;;34.85;24.62;98489.89;2210420;79;21261;-79
2022/06/19 12:46:48;;;;;;;13.90;2.90;;;;;;;34.64;24.01;98482.69;2210363;79;20979;-80
2022/06/19 12:49:48;;;;;;;14.47;2.50;;;;;;;34.50;24.00;98484.47;2210318;79;20921;-79
2022/06/19 12:52:49;;;;;;;9.95;3.00;;;;;;;34.50;24.00;98484.47;2210719;79;20976;-80
2022/06/19 12:55:49;;;;;;;14.20;2.98;;;;;;;34.54;23.78;98482.33;2210759;81;20956;-80
2022/06/19 12:58:50;;;;;;;8.68;2.55;;;;;;;34.68;23.79;98470.59;2210477;79;20924;-79
2022/06/19 13:01:50;;;;;;;11.20;2.62;;;;;;;34.84;24.23;98471.41;2210703;79;20913;-79
2022/06/19 13:04:50;;;;;;;14.45;3.12;;;;;;;34.77;24.64;98467.53;2210133;79;20977;-79
2022/06/19 13:07:51;;;;;;;8.03;2.83;;;;;;;34.71;24.53;98459.47;2210530;79;20949;-79
2022/06/19 13:10:51;;;;;;;13.50;2.92;;;;;;;34.77;24.22;98461.61;2210411;79;20917;-79
2022/06/19 13:13:52;;;;;;;10.05;2.60;;;;;;;34.79;24.62;98461.47;2210632;79;20917;-79
2022/06/19 13:16:52;;;;;;;7.47;2.37;;;;;;;34.73;25.39;98460.69;2210331;79;20877;-79
2022/06/19 13:19:54;;;;;;;12.13;3.00;;;;;;;34.64;25.52;98452.02;2209913;79;20983;-79
2022/06/19 13:22:53;;;;;;;13.55;2.83;;;;;;;34.60;24.89;98452.80;2209227;79;21047;-79
2022/06/19 13:25:53;;;;;;;20.43;2.77;;;;;;;34.65;24.41;98447.81;2210339;79;20924;-80
2022/06/19 13:28:54;;;;;;;11.95;3.15;;;;;;;34.63;24.70;98441.67;2210652;81;20976;-80
2022/06/19 13:31:54;;;;;;;12.40;3.17;;;;;;;34.71;24.72;98443.20;2210348;79;20961;-80
2022/06/19 13:34:55;;;;;;;22.50;15.98;;;;;;;34.81;23.97;98444.55;2210671;79;20924;-79
2022/06/19 13:37:55;;;;;;;16.10;3.33;;;;;;;34.81;24.36;98433.20;2210512;79;20886;-79
2022/06/19 13:40:55;;;;;;;24.27;3.42;;;;;;;34.71;23.79;98425.59;2210456;79;20901;-79
2022/06/19 13:43:56;;;;;;;9.90;2.87;;;;;;;34.77;23.95;98429.08;2210563;79;20921;-80
2022/06/19 13:46:56;;;;;;;15.18;2.95;;;;;;;34.73;24.19;98429.01;2210384;81;20953;-80
2022/06/19 13:49:57;;;;;;;15.45;3.37;;;;;;;34.59;23.86;98425.34;2210610;81;20953;-80
2022/06/19 13:52:57;;;;;;;8.85;3.60;;;;;;;34.49;24.24;98416.36;2210520;79;20996;-79
2022/06/19 13:55:57;;;;;;;11.12;3.00;;;;;;;34.44;24.58;98413.22;2210227;79;21308;-79
2022/06/19 13:58:58;;;;;;;17.85;3.12;;;;;;;34.53;25.48;98401.53;2210245;79;21316;-78
2022/06/19 14:01:58;;;;;;;7.30;2.62;;;;;;;34.68;25.83;98396.05;2210562;79;20921;-80
2022/06/19 14:04:59;;;;;;;15.72;3.45;;;;;;;34.69;24.92;98399.13;2210393;79;20925;-80
2022/06/19 14:07:59;;;;;;;13.83;2.80;;;;;;;34.69;24.33;98390.98;2210317;81;20942;-79
2022/06/19 14:11:01;;;;;;;8.25;2.58;;;;;;;34.61;24.21;98384.55;2197568;81;20989;-79
2022/06/19 14:14:02;;;;;;;10.95;2.75;;;;;;;34.53;24.00;98370.86;2210676;79;20917;-79
2022/06/19 14:17:02;;;;;;;7.67;2.45;;;;;;;34.57;23.77;98379.06;2210830;79;21293;-79